Time;durP1;ratioP1;P1;durP2;ratioP2;P2;SDS_P1;SDS_P2;PMS_P1;PMS_P2;Temp;Humidity;BMP_temperature;BMP_pressure;BME280_temperature;BME280_humidity;BME280_pressure;Samples;Min_cycle;Max_cycle;Signal;HPM_P1;HPM_P2
2022/05/26 00:00:28;;;;;;;15.88;4.70;;;14.20;99.90;;;;;;4227357;28;20047;-83
2022/05/26 00:02:29;;;;;;;23.08;4.40;;;14.20;99.90;;;;;;4233952;28;20044;-82
2022/05/26 00:04:30;;;;;;;19.40;5.05;;;14.10;99.90;;;;;;4244739;28;20074;-82
2022/05/26 00:06:31;;;;;;;21.02;4.95;;;14.10;99.90;;;;;;4246008;28;20091;-82
2022/05/26 00:08:33;;;;;;;25.83;5.85;;;14.20;99.90;;;;;;4217272;28;20055;-82
2022/05/26 00:10:35;;;;;;;21.23;5.53;;;14.10;99.90;;;;;;4235274;28;20044;-81
2022/05/26 00:12:36;;;;;;;20.17;5.03;;;14.20;99.90;;;;;;4245069;28;20062;-82
2022/05/26 00:14:38;;;;;;;21.95;6.88;;;14.10;99.90;;;;;;4245955;28;20475;-82
2022/05/26 00:16:42;;;;;;;15.95;4.93;;;14.20;99.90;;;;;;4235288;28;20065;-81
2022/05/26 00:18:43;;;;;;;22.42;6.22;;;14.10;99.90;;;;;;4235434;28;20035;-82
2022/05/26 00:20:44;;;;;;;21.50;5.30;;;14.10;99.90;;;;;;4234821;28;20039;-82
2022/05/26 00:22:45;;;;;;;19.65;5.38;;;14.00;99.90;;;;;;4235507;28;20193;-82
2022/05/26 00:24:45;;;;;;;18.48;5.10;;;14.00;99.90;;;;;;4213244;28;20044;-82
2022/05/26 00:26:46;;;;;;;16.85;4.32;;;14.00;99.90;;;;;;4245961;28;20046;-82
2022/05/26 00:28:47;;;;;;;17.85;5.45;;;14.00;99.90;;;;;;4235302;28;20441;-82
2022/05/26 00:30:48;;;;;;;21.88;4.78;;;14.00;99.90;;;;;;4235423;28;20082;-82
2022/05/26 00:32:50;;;;;;;20.60;5.03;;;14.00;99.90;;;;;;4216492;28;20044;-81
2022/05/26 00:34:51;;;;;;;20.35;5.22;;;14.00;99.90;;;;;;4217769;28;20085;-82
2022/05/26 00:36:51;;;;;;;19.52;4.75;;;14.40;99.90;;;;;;4233296;28;20039;-82
2022/05/26 00:38:52;;;;;;;16.67;5.32;;;14.00;99.90;;;;;;4243875;28;20495;-82
2022/05/26 00:41:04;;;;;;;24.65;5.32;;;14.00;99.90;;;;;;4245784;28;20033;-82
2022/05/26 00:43:06;;;;;;;23.23;4.80;;;13.90;99.90;;;;;;4234627;28;20050;-82
2022/05/26 00:45:08;;;;;;;22.13;4.53;;;13.90;99.90;;;;;;4235219;28;20061;-83
2022/05/26 00:47:25;;;;;;;26.27;5.45;;;13.90;99.90;;;;;;4232784;28;20047;-83
2022/05/26 00:49:58;;;;;;;32.50;5.68;;;13.90;99.90;;;;;;4244078;28;20082;-83
2022/05/26 00:51:59;;;;;;;25.77;5.03;;;13.90;99.90;;;;;;4236390;28;20403;-83
2022/05/26 00:54:04;;;;;;;22.13;6.15;;;13.90;99.90;;;;;;4234746;28;20035;-83
2022/05/26 00:56:14;;;;;;;30.30;5.90;;;13.80;99.90;;;;;;4238261;27;20153;-83
2022/05/26 00:58:33;;;;;;;23.52;5.55;;;13.80;99.90;;;;;;4243876;27;20062;-83
2022/05/26 01:00:35;;;;;;;34.70;6.88;;;13.80;99.90;;;;;;4220417;28;20051;-83
2022/05/26 01:02:43;;;;;;;21.25;6.30;;;13.80;99.90;;;;;;4240251;27;20117;-83
2022/05/26 01:04:50;;;;;;;27.30;6.28;;;13.80;99.90;;;;;;4199285;28;20053;-83
2022/05/26 01:06:57;;;;;;;22.35;4.75;;;13.70;99.90;;;;;;4226942;28;20079;-83
2022/05/26 01:09:01;;;;;;;20.63;5.43;;;13.80;99.90;;;;;;4247279;27;20043;-82
2022/05/26 01:11:02;;;;;;;18.20;5.05;;;13.80;99.90;;;;;;4228986;28;20499;-83
2022/05/26 01:13:02;;;;;;;31.77;5.90;;;13.80;99.90;;;;;;4246619;27;20086;-83
2022/05/26 01:15:10;;;;;;;21.67;5.20;;;13.80;99.90;;;;;;4246951;27;20126;-82
2022/05/26 01:17:37;;;;;;;21.77;3.97;;;13.80;99.90;;;;;;4247514;27;20092;-82
2022/05/26 01:20:25;;;;;;;24.25;5.75;;;13.80;99.90;;;;;;4237862;27;20047;-82
2022/05/26 01:23:08;;;;;;;22.67;4.75;;;13.80;99.90;;;;;;4141212;28;20478;-82
2022/05/26 01:25:27;;;;;;;29.40;5.68;;;13.80;99.90;;;;;;4134283;28;20042;-82
2022/05/26 01:27:35;;;;;;;24.40;6.13;;;14.20;99.90;;;;;;4193452;27;20050;-82
2022/05/26 01:30:07;;;;;;;23.88;5.70;;;13.90;99.90;;;;;;4234851;27;20510;-82
2022/05/26 01:32:26;;;;;;;24.42;5.57;;;13.80;99.90;;;;;;4237729;27;20059;-83
2022/05/26 01:35:05;;;;;;;14.00;4.53;;;13.80;99.90;;;;;;4241659;27;20061;-83
2022/05/26 01:37:25;;;;;;;22.65;4.63;;;13.80;99.90;;;;;;4214448;28;20052;-83
2022/05/26 01:39:33;;;;;;;23.83;5.43;;;13.80;99.90;;;;;;4216646;28;20078;-83
2022/05/26 01:41:56;;;;;;;27.80;4.38;;;13.80;99.90;;;;;;4247635;27;20462;-82
2022/05/26 01:44:18;;;;;;;23.73;3.97;;;13.80;99.90;;;;;;4237770;27;20074;-82
2022/05/26 01:46:43;;;;;;;22.05;4.93;;;13.80;99.90;;;;;;4239108;27;20087;-81
2022/05/26 01:49:30;;;;;;;17.10;4.10;;;13.70;99.90;;;;;;4240478;27;20044;-83
2022/05/26 01:51:38;;;;;;;17.42;4.88;;;13.80;99.90;;;;;;4152658;28;20108;-83
2022/05/26 01:54:22;;;;;;;28.27;5.90;;;13.70;99.90;;;;;;4161423;28;20042;-83
2022/05/26 01:56:31;;;;;;;24.17;4.97;;;13.80;99.90;;;;;;4188190;27;20058;-82
2022/05/26 01:58:38;;;;;;;17.05;3.28;;;13.80;99.90;;;;;;4243659;27;20372;-83
2022/05/26 02:00:39;;;;;;;19.23;3.70;;;13.80;99.90;;;;;;4237997;27;20105;-83
2022/05/26 02:03:07;;;;;;;29.63;4.82;;;13.90;99.90;;;;;;4239925;27;20039;-83
2022/05/26 02:05:17;;;;;;;25.38;4.15;;;13.80;99.90;;;;;;4239089;27;20475;-83
2022/05/26 02:07:30;;;;;;;16.58;3.70;;;13.80;99.90;;;;;;4236210;27;20097;-83
2022/05/26 02:09:41;;;;;;;20.60;3.92;;;13.80;99.90;;;;;;4234182;27;20055;-83
2022/05/26 02:11:52;;;;;;;21.35;3.85;;;13.80;99.90;;;;;;4227653;28;20052;-83
2022/05/26 02:13:59;;;;;;;12.90;3.03;;;13.80;99.90;;;;;;4237400;27;20054;-83
2022/05/26 02:16:17;;;;;;;26.10;4.78;;;13.80;99.90;;;;;;4237308;27;20039;-83
2022/05/26 02:18:26;;;;;;;21.40;3.65;;;13.80;99.90;;;;;;4237387;27;20027;-83
2022/05/26 02:20:28;;;;;;;;;;;13.80;99.90;;;;;;4237034;27;20126;-83
2022/05/26 02:22:36;;;;;;;21.75;4.82;;;13.90;99.90;;;;;;4236645;27;20405;-83
2022/05/26 02:24:43;;;;;;;20.15;3.28;;;13.70;99.90;;;;;;4218725;28;20056;-83
2022/05/26 02:26:43;;;;;;;19.77;3.30;;;13.60;99.90;;;;;;4238323;27;20034;-83
2022/05/26 02:31:04;;;;;;;;;;;13.80;99.90;;;;;;4243177;27;20108;-83
2022/05/26 02:33:08;;;;;;;26.92;4.28;;;13.70;99.90;;;;;;4241864;27;19920;-83
2022/05/26 02:35:30;;;;;;;22.00;4.95;;;13.80;99.90;;;;;;4234256;27;20040;-83
2022/05/26 02:37:31;;;;;;;19.48;4.43;;;13.70;99.90;;;;;;4235923;27;20051;-83
2022/05/26 02:39:32;;;;;;;29.13;4.05;;;13.70;99.90;;;;;;4236422;27;20139;-83
2022/05/26 02:41:34;;;;;;;15.65;4.07;;;13.60;99.90;;;;;;4233731;27;20039;-83
2022/05/26 02:43:35;;;;;;;15.20;3.38;;;13.60;99.90;;;;;;4241936;27;20042;-83
2022/05/26 02:46:24;;;;;;;19.02;3.42;;;13.60;99.90;;;;;;4238396;27;20100;-83
2022/05/26 02:49:17;;;;;;;22.13;4.80;;;13.60;99.90;;;;;;4198663;27;20059;-83
2022/05/26 02:51:26;;;;;;;27.58;4.55;;;13.60;99.90;;;;;;4202069;27;20047;-83
2022/05/26 02:54:04;;;;;;;17.92;3.58;;;13.60;99.90;;;;;;4236148;27;20126;-83
2022/05/26 02:56:17;;;;;;;28.05;3.72;;;13.60;99.90;;;;;;4244444;27;20066;-81
2022/05/26 02:58:44;;;;;;;20.60;3.60;;;13.60;99.90;;;;;;4228348;28;20580;-81
2022/05/26 03:00:56;;;;;;;22.88;4.13;;;13.50;99.90;;;;;;4234336;27;20039;-82
2022/05/26 03:03:14;;;;;;;21.67;3.42;;;13.50;99.90;;;;;;4235794;27;20475;-83
2022/05/26 03:05:21;;;;;;;16.73;2.88;;;13.50;99.90;;;;;;4236681;27;20044;-82
2022/05/26 03:07:29;;;;;;;19.65;3.33;;;13.50;99.90;;;;;;4238109;27;20035;-82
2022/05/26 03:09:35;;;;;;;21.27;2.88;;;13.40;99.90;;;;;;4244669;27;20063;-82
2022/05/26 03:11:49;;;;;;;20.55;5.10;;;13.50;99.90;;;;;;4247637;27;20047;-82
2022/05/26 03:13:50;;;;;;;20.92;3.85;;;13.40;99.90;;;;;;4239092;27;20108;-81
2022/05/26 03:15:53;;;;;;;12.35;2.67;;;13.40;99.90;;;;;;4236336;27;20040;-82
2022/05/26 03:17:53;;;;;;;16.48;2.58;;;13.30;99.90;;;;;;4218830;28;20096;-81
2022/05/26 03:19:54;;;;;;;21.73;3.38;;;13.90;99.90;;;;;;4235809;27;20114;-82
2022/05/26 03:21:55;;;;;;;15.57;3.15;;;13.30;99.90;;;;;;4235393;27;20050;-82
2022/05/26 03:23:55;;;;;;;15.48;3.05;;;13.30;99.90;;;;;;4241060;27;20095;-82
2022/05/26 03:25:58;;;;;;;15.07;3.90;;;13.30;99.90;;;;;;4238917;27;20078;-82
2022/05/26 03:27:58;;;;;;;20.13;3.42;;;13.30;99.90;;;;;;4240447;27;20039;-82
2022/05/26 03:29:59;;;;;;;10.52;2.35;;;13.30;99.90;;;;;;4238745;27;20039;-82
2022/05/26 03:32:00;;;;;;;7.88;1.90;;;13.40;99.90;;;;;;4235914;27;20065;-82
2022/05/26 03:40:58;;;;;;;11.93;2.58;;;13.20;99.90;;;;;;4245199;27;19995;-82
2022/05/26 03:43:00;;;;;;;12.93;2.40;;;13.20;99.90;;;;;;4235614;27;20045;-81
2022/05/26 03:45:02;;;;;;;15.27;2.33;;;13.20;99.90;;;;;;4234307;27;20035;-82
2022/05/26 03:47:04;;;;;;;9.73;2.83;;;13.20;99.90;;;;;;4245710;27;20050;-82
2022/05/26 03:49:05;;;;;;;9.30;2.83;;;13.10;99.90;;;;;;4234515;27;20432;-82
2022/05/26 03:51:06;;;;;;;14.15;2.65;;;13.10;99.90;;;;;;4245773;27;20027;-82
2022/05/26 03:53:07;;;;;;;12.68;3.20;;;13.10;99.90;;;;;;4217902;28;20040;-83
2022/05/26 03:55:08;;;;;;;14.48;3.00;;;13.10;99.90;;;;;;4234639;28;20034;-82
2022/05/26 03:57:09;;;;;;;14.43;2.30;;;13.10;99.90;;;;;;4233405;27;20039;-83
2022/05/26 03:59:10;;;;;;;15.27;2.95;;;13.10;99.90;;;;;;4244749;27;20488;-82
2022/05/26 04:01:11;;;;;;;12.07;2.17;;;13.10;99.90;;;;;;4235177;28;20071;-82
2022/05/26 04:03:11;;;;;;;8.80;1.83;;;13.10;99.90;;;;;;4233207;28;20035;-82
2022/05/26 04:05:13;;;;;;;15.65;1.95;;;13.10;99.90;;;;;;4234390;28;20036;-83
2022/05/26 04:07:14;;;;;;;11.18;2.22;;;13.10;99.90;;;;;;4244146;28;20375;-83
2022/05/26 04:09:14;;;;;;;4.78;1.83;;;13.10;99.90;;;;;;4235237;28;20080;-82
2022/05/26 04:11:15;;;;;;;9.52;1.60;;;13.10;99.90;;;;;;4244391;28;20039;-82
2022/05/26 04:13:16;;;;;;;7.57;1.67;;;13.10;99.90;;;;;;4244168;28;20075;-82
2022/05/26 04:15:17;;;;;;;10.23;1.88;;;13.10;99.90;;;;;;4244198;28;20427;-82
2022/05/26 04:17:19;;;;;;;10.80;2.15;;;13.10;99.90;;;;;;4244294;28;20479;-83
2022/05/26 04:19:20;;;;;;;11.20;2.72;;;13.10;99.90;;;;;;4234878;28;20130;-83
2022/05/26 04:21:21;;;;;;;12.60;2.33;;;13.20;99.90;;;;;;4244370;28;20561;-83
2022/05/26 04:23:21;;;;;;;8.98;1.52;;;13.20;99.90;;;;;;4216899;28;20087;-83
2022/05/26 04:25:22;;;;;;;5.10;1.55;;;13.20;99.90;;;;;;4235606;28;20040;-83
2022/05/26 04:27:26;;;;;;;10.50;1.60;;;13.20;99.90;;;;;;4243931;28;20043;-83
2022/05/26 04:29:28;;;;;;;9.23;1.48;;;13.20;99.90;;;;;;4235670;27;20044;-82
2022/05/26 04:31:28;;;;;;;3.65;1.08;;;13.20;99.90;;;;;;4219823;28;20031;-83
2022/05/26 04:33:29;;;;;;;12.48;1.70;;;13.10;99.90;;;;;;4228376;28;20124;-82
2022/05/26 04:35:30;;;;;;;12.35;2.50;;;13.20;99.90;;;;;;4247646;27;20524;-82
2022/05/26 04:37:31;;;;;;;10.02;1.88;;;13.20;99.90;;;;;;4238575;27;20079;-83
2022/05/26 04:39:32;;;;;;;7.65;1.25;;;13.20;99.90;;;;;;4239649;27;20040;-83
2022/05/26 04:41:33;;;;;;;6.75;1.80;;;13.20;99.90;;;;;;4219587;28;20572;-83
2022/05/26 04:43:34;;;;;;;8.90;1.92;;;13.20;99.90;;;;;;4220611;28;20061;-83
2022/05/26 04:45:35;;;;;;;6.85;1.25;;;13.10;99.90;;;;;;4246741;27;20459;-82
2022/05/26 04:47:35;;;;;;;6.95;1.40;;;13.10;99.90;;;;;;4238368;27;20048;-82
2022/05/26 04:49:37;;;;;;;3.83;0.85;;;13.10;99.90;;;;;;4247889;27;20380;-83
2022/05/26 04:51:39;;;;;;;5.75;1.05;;;13.10;99.90;;;;;;4246414;27;20047;-83
2022/05/26 04:53:39;;;;;;;6.03;1.30;;;13.20;99.90;;;;;;4238612;27;20053;-83
2022/05/26 04:55:40;;;;;;;5.20;1.30;;;13.10;99.90;;;;;;4246749;27;20071;-82
2022/05/26 04:57:41;;;;;;;7.82;1.42;;;13.10;99.90;;;;;;4219960;28;20050;-83
2022/05/26 04:59:42;;;;;;;4.18;1.20;;;13.10;99.90;;;;;;4248365;27;20031;-83
2022/05/26 05:01:43;;;;;;;3.95;0.80;;;13.20;99.90;;;;;;4240238;27;20035;-83
2022/05/26 05:03:44;;;;;;;7.47;1.10;;;13.50;99.90;;;;;;4245799;27;20039;-83
2022/05/26 05:05:45;;;;;;;11.70;1.98;;;13.20;99.90;;;;;;4248671;27;20445;-83
2022/05/26 05:07:45;;;;;;;4.20;1.92;;;13.20;99.90;;;;;;4249576;27;20039;-82
2022/05/26 05:09:47;;;;;;;12.07;2.25;;;13.20;99.90;;;;;;4246588;27;20126;-83
2022/05/26 05:11:48;;;;;;;6.20;1.02;;;13.20;99.90;;;;;;4246900;27;20403;-82
2022/05/26 05:13:48;;;;;;;5.55;0.90;;;13.30;99.90;;;;;;4245828;27;20031;-82
2022/05/26 05:15:58;;;;;;;6.40;0.90;;;13.30;99.90;;;;;;4249169;27;20153;-82
2022/05/26 05:17:59;;;;;;;5.68;1.10;;;13.30;99.90;;;;;;4230289;28;20056;-82
2022/05/26 05:20:00;;;;;;;10.27;1.42;;;13.40;99.90;;;;;;4243156;27;20043;-82
2022/05/26 05:22:03;;;;;;;11.70;2.33;;;13.40;99.90;;;;;;4245968;27;20359;-82
2022/05/26 05:24:36;;;;;;;5.35;0.75;;;13.50;99.90;;;;;;4248964;27;20452;-82
2022/05/26 05:26:40;;;;;;;3.67;0.73;;;13.60;99.90;;;;;;4222108;27;20380;-83
2022/05/26 05:28:46;;;;;;;7.18;0.70;;;13.60;99.90;;;;;;4212490;28;20079;-83
2022/05/26 05:31:01;;;;;;;6.75;1.00;;;13.70;99.90;;;;;;4249178;27;20119;-83
2022/05/26 05:33:15;;;;;;;7.93;1.13;;;13.80;99.90;;;;;;4248807;27;20505;-82
2022/05/26 05:35:24;;;;;;;9.57;1.15;;;13.80;99.90;;;;;;4229688;28;20153;-82
2022/05/26 05:37:24;;;;;;;10.30;1.15;;;14.10;99.90;;;;;;4244844;27;20043;-83
2022/05/26 05:39:26;;;;;;;5.70;1.00;;;13.90;99.90;;;;;;4242044;27;20028;-83
2022/05/26 05:41:28;;;;;;;7.85;0.90;;;14.00;99.90;;;;;;4231009;28;20035;-83
2022/05/26 05:43:30;;;;;;;6.63;0.80;;;14.00;99.90;;;;;;4248475;27;20040;-82
2022/05/26 05:45:31;;;;;;;6.65;1.25;;;14.00;99.90;;;;;;4249682;27;20035;-83
2022/05/26 05:47:32;;;;;;;7.10;1.58;;;14.10;99.90;;;;;;4249354;27;20074;-83
2022/05/26 05:49:34;;;;;;;5.43;1.10;;;14.10;99.90;;;;;;4249079;27;20079;-83
2022/05/26 05:51:35;;;;;;;6.93;1.23;;;14.20;99.90;;;;;;4248499;27;20047;-82
2022/05/26 05:53:36;;;;;;;7.80;0.98;;;14.20;99.90;;;;;;4246838;27;20040;-82
2022/05/26 05:55:37;;;;;;;3.45;0.68;;;14.30;99.90;;;;;;4246333;27;20419;-83
2022/05/26 05:57:38;;;;;;;5.57;1.00;;;14.30;99.90;;;;;;4246856;27;20177;-82
2022/05/26 05:59:39;;;;;;;6.55;1.23;;;14.40;99.90;;;;;;4248892;27;20039;-82
2022/05/26 06:01:40;;;;;;;6.90;0.95;;;14.40;99.90;;;;;;4245431;27;20058;-81
2022/05/26 06:03:40;;;;;;;5.88;0.90;;;14.40;99.90;;;;;;4247924;27;20146;-82
2022/05/26 06:05:41;;;;;;;6.85;1.05;;;14.50;99.90;;;;;;4249019;27;20142;-82
2022/05/26 06:07:42;;;;;;;4.47;0.82;;;14.60;99.90;;;;;;4245436;27;20046;-82
2022/05/26 06:09:43;;;;;;;4.70;0.95;;;14.60;99.90;;;;;;4246099;27;20433;-82
2022/05/26 06:11:45;;;;;;;9.40;1.10;;;14.60;99.90;;;;;;4247533;27;20066;-82
2022/05/26 06:13:45;;;;;;;11.50;1.98;;;14.70;99.90;;;;;;4247517;27;20054;-82
2022/05/26 06:15:46;;;;;;;7.18;0.63;;;14.70;99.90;;;;;;4228706;28;20400;-82
2022/05/26 06:17:47;;;;;;;7.07;0.80;;;14.80;99.90;;;;;;4229076;28;20051;-82
2022/05/26 06:19:48;;;;;;;7.05;1.35;;;14.80;99.90;;;;;;4244432;27;20031;-82
2022/05/26 06:21:48;;;;;;;6.57;1.17;;;14.90;99.90;;;;;;4247872;27;20107;-82
2022/05/26 06:23:51;;;;;;;4.40;0.90;;;14.90;99.90;;;;;;4249240;27;20043;-82
2022/05/26 06:25:52;;;;;;;6.32;1.10;;;15.00;99.90;;;;;;4246744;27;20426;-82
2022/05/26 06:30:14;;;;;;;;;;;15.20;99.90;;;;;;4246287;27;20046;-82
2022/05/26 06:37:14;;;;;;;4.10;0.85;;;15.20;99.90;;;;;;4247704;27;20506;-82
2022/05/26 06:39:15;;;;;;;6.90;1.42;;;15.50;99.90;;;;;;4230996;28;20498;-82
2022/05/26 06:43:36;;;;;;;4.82;1.02;;;15.60;99.90;;;;;;4227759;28;20052;-82
2022/05/26 06:45:38;;;;;;;3.38;0.75;;;15.60;99.90;;;;;;4248198;27;20130;-82
2022/05/26 06:47:39;;;;;;;1.67;0.60;;;15.60;99.90;;;;;;4247911;27;20045;-82
2022/05/26 06:49:40;;;;;;;7.45;0.73;;;15.50;99.90;;;;;;4248272;27;20070;-83
2022/05/26 06:51:43;;;;;;;4.43;0.77;;;15.50;99.90;;;;;;4242625;27;20050;-82
2022/05/26 06:53:44;;;;;;;7.03;1.10;;;15.40;99.90;;;;;;4231940;28;20404;-83
2022/05/26 06:55:45;;;;;;;4.55;0.90;;;15.40;99.90;;;;;;4236441;27;20043;-82
2022/05/26 06:57:45;;;;;;;6.47;1.25;;;15.40;99.90;;;;;;4249445;27;20052;-82
2022/05/26 06:59:46;;;;;;;3.60;0.57;;;15.30;99.90;;;;;;4249019;27;20089;-82
2022/05/26 07:01:47;;;;;;;2.30;0.65;;;15.40;99.90;;;;;;4249696;27;20389;-83
2022/05/26 07:03:47;;;;;;;2.33;0.70;;;15.40;99.90;;;;;;4249447;27;20095;-83
2022/05/26 07:05:49;;;;;;;4.38;0.68;;;15.50;99.90;;;;;;4230561;28;20051;-82
2022/05/26 07:07:49;;;;;;;5.47;0.85;;;15.60;99.90;;;;;;4249399;27;20039;-82
2022/05/26 07:09:53;;;;;;;5.90;1.13;;;15.60;99.90;;;;;;4249514;27;20483;-83
2022/05/26 07:11:54;;;;;;;4.55;0.95;;;15.60;99.90;;;;;;4249963;27;20391;-83
2022/05/26 07:13:55;;;;;;;5.43;1.05;;;15.60;99.90;;;;;;4231157;28;20161;-83
2022/05/26 07:15:55;;;;;;;11.77;1.90;;;15.60;99.90;;;;;;4249897;27;20085;-82
2022/05/26 07:17:56;;;;;;;5.07;0.77;;;15.60;99.90;;;;;;4249519;27;20047;-83
2022/05/26 07:19:57;;;;;;;3.38;0.73;;;15.50;99.90;;;;;;4249498;27;20054;-82
2022/05/26 07:21:58;;;;;;;7.95;1.08;;;15.50;99.90;;;;;;4249274;27;20085;-83
2022/05/26 07:24:00;;;;;;;1.67;0.93;;;15.40;99.90;;;;;;4249628;27;20039;-83
2022/05/26 07:26:09;;;;;;;6.93;0.77;;;15.40;99.90;;;;;;4248313;27;20047;-83
2022/05/26 07:28:12;;;;;;;4.00;0.60;;;15.40;99.90;;;;;;4237571;27;20420;-82
2022/05/26 07:30:12;;;;;;;3.72;0.80;;;15.40;99.90;;;;;;4244638;27;20475;-82
2022/05/26 07:32:13;;;;;;;6.40;0.80;;;15.40;99.90;;;;;;4249633;27;20099;-83
2022/05/26 07:34:14;;;;;;;5.68;0.80;;;15.50;99.90;;;;;;4250939;27;20043;-83
2022/05/26 07:43:15;;;;;;;5.07;1.63;;;16.00;99.90;;;;;;4249541;27;20493;-83
2022/05/26 07:45:18;;;;;;;3.08;0.70;;;16.20;99.90;;;;;;4249519;27;20047;-83
2022/05/26 07:47:22;;;;;;;5.70;1.17;;;16.40;99.90;;;;;;4247915;27;20047;-82
2022/05/26 07:49:23;;;;;;;3.17;0.75;;;16.60;99.90;;;;;;4251144;27;20506;-82
2022/05/26 07:51:24;;;;;;;10.02;1.30;;;16.70;99.90;;;;;;4251887;27;20039;-82
2022/05/26 07:53:25;;;;;;;4.60;0.77;;;16.70;99.90;;;;;;4221945;28;20080;-82
2022/05/26 07:55:25;;;;;;;4.03;1.00;;;16.70;99.90;;;;;;4233409;28;20039;-81
2022/05/26 07:57:28;;;;;;;5.03;0.70;;;16.70;99.90;;;;;;4233332;28;20446;-82
2022/05/26 07:59:29;;;;;;;5.85;0.70;;;16.70;99.80;;;;;;4234007;28;20495;-83
2022/05/26 08:01:33;;;;;;;6.80;0.60;;;16.70;99.40;;;;;;4238099;28;20054;-82
2022/05/26 08:03:34;;;;;;;3.47;0.70;;;16.70;98.90;;;;;;4216087;28;20051;-82
2022/05/26 08:05:37;;;;;;;6.35;1.42;;;16.70;98.80;;;;;;4231923;28;20108;-81
2022/05/26 08:07:41;;;;;;;4.13;0.98;;;16.60;98.20;;;;;;4238593;27;20096;-81
2022/05/26 08:09:41;;;;;;;4.40;0.70;;;16.50;98.00;;;;;;4248438;28;20066;-82
2022/05/26 08:11:42;;;;;;;6.45;1.73;;;16.50;97.90;;;;;;4248528;28;20043;-82
2022/05/26 08:13:43;;;;;;;6.60;1.20;;;16.60;98.10;;;;;;4248536;28;20042;-82
2022/05/26 08:15:44;;;;;;;8.30;1.10;;;16.70;98.10;;;;;;4248804;28;20039;-82
2022/05/26 08:17:44;;;;;;;2.88;0.60;;;16.80;98.00;;;;;;4246375;28;20126;-82
2022/05/26 08:19:46;;;;;;;4.82;0.60;;;16.90;97.90;;;;;;4236721;28;20040;-81
2022/05/26 08:21:48;;;;;;;5.55;0.82;;;16.90;97.60;;;;;;4248569;28;20054;-82
2022/05/26 08:23:49;;;;;;;5.38;0.57;;;17.00;97.20;;;;;;4246249;28;20151;-82
2022/05/26 08:25:50;;;;;;;8.80;0.90;;;16.90;96.60;;;;;;4231667;28;20039;-83
2022/05/26 08:27:50;;;;;;;5.80;1.67;;;16.90;96.50;;;;;;4231313;28;20047;-82
2022/05/26 08:29:54;;;;;;;3.33;0.90;;;16.90;96.40;;;;;;4231532;28;20069;-82
2022/05/26 08:31:54;;;;;;;12.25;1.35;;;16.90;96.10;;;;;;4231682;28;20483;-82
2022/05/26 08:33:55;;;;;;;6.90;0.63;;;16.90;96.40;;;;;;4224209;28;20134;-83
2022/05/26 08:36:17;;;;;;;5.80;1.92;;;16.90;96.20;;;;;;4236467;28;20047;-83
2022/05/26 08:38:18;;;;;;;3.35;1.17;;;17.10;95.50;;;;;;4221328;28;20115;-82
2022/05/26 08:40:47;;;;;;;5.15;0.70;;;17.40;95.60;;;;;;4248181;28;20166;-82
2022/05/26 08:42:49;;;;;;;;;;;17.70;94.30;;;;;;4249119;28;20487;-83
2022/05/26 08:44:54;;;;;;;4.82;0.60;;;18.00;95.00;;;;;;4240810;28;20075;-82
2022/05/26 08:47:16;;;;;;;2.67;1.02;;;18.40;95.10;;;;;;4196482;28;20041;-82
2022/05/26 08:49:41;;;;;;;6.55;1.02;;;18.50;93.20;;;;;;4231675;28;20039;-81
2022/05/26 08:52:13;;;;;;;3.22;0.70;;;18.60;92.40;;;;;;4231049;28;20048;-82
2022/05/26 08:54:33;;;;;;;4.43;0.70;;;18.70;90.60;;;;;;4212887;28;20064;-82
2022/05/26 08:56:34;;;;;;;5.63;0.60;;;18.70;92.00;;;;;;4231580;28;20043;-81
2022/05/26 08:58:47;;;;;;;4.63;0.70;;;18.80;92.70;;;;;;4231194;28;20051;-81
2022/05/26 09:00:50;;;;;;;4.82;0.50;;;18.70;92.10;;;;;;4231864;28;20028;-82
2022/05/26 09:02:57;;;;;;;6.45;0.60;;;18.70;92.90;;;;;;4212712;28;20048;-82
2022/05/26 09:05:01;;;;;;;3.70;1.05;;;18.70;91.90;;;;;;4213148;28;20063;-82
2022/05/26 09:14:33;;;;;;;4.75;0.80;;;18.60;92.20;;;;;;4247603;28;20043;-82
2022/05/26 09:16:42;;;;;;;3.50;0.80;;;18.50;91.90;;;;;;4248885;27;20039;-83
2022/05/26 09:18:44;;;;;;;2.45;0.55;;;18.30;91.30;;;;;;4246584;27;20050;-82
2022/05/26 09:20:48;;;;;;;3.22;0.40;;;18.30;92.30;;;;;;4234058;28;20043;-83
2022/05/26 09:22:49;;;;;;;2.33;0.70;;;18.50;91.70;;;;;;4215583;28;20094;-83
2022/05/26 09:24:50;;;;;;;3.97;0.57;;;18.60;91.20;;;;;;4214812;28;20044;-83
2022/05/26 09:26:55;;;;;;;6.20;0.82;;;18.80;90.60;;;;;;4215562;28;20040;-83
2022/05/26 09:29:08;;;;;;;3.13;0.43;;;19.20;90.10;;;;;;4198815;28;20091;-81
2022/05/26 09:31:21;;;;;;;2.10;0.95;;;19.50;87.40;;;;;;4215499;28;20036;-81
2022/05/26 09:33:31;;;;;;;3.08;0.40;;;19.60;87.10;;;;;;4233856;28;20544;-83
2022/05/26 09:35:34;;;;;;;5.22;1.30;;;19.80;88.10;;;;;;4233699;28;20048;-82
2022/05/26 09:37:40;;;;;;;4.30;0.70;;;;;;;;;;4233880;28;20050;-83
2022/05/26 09:39:42;;;;;;;2.78;0.60;;;20.00;88.10;;;;;;4242525;27;20127;-82
2022/05/26 09:41:46;;;;;;;3.83;0.60;;;20.50;85.60;;;;;;4250246;27;20086;-82
2022/05/26 09:43:57;;;;;;;2.65;0.30;;;20.50;82.90;;;;;;4249489;27;20035;-82
2022/05/26 09:46:02;;;;;;;3.97;0.47;;;20.60;82.40;;;;;;4250278;27;20048;-82
2022/05/26 09:48:17;;;;;;;3.00;0.52;;;20.60;82.40;;;;;;4239679;27;20067;-82
2022/05/26 09:50:33;;;;;;;4.60;0.70;;;20.50;80.80;;;;;;4249305;27;20042;-83
2022/05/26 09:52:44;;;;;;;2.42;0.50;;;20.40;80.10;;;;;;4250106;27;20035;-82
2022/05/26 09:54:47;;;;;;;1.75;0.22;;;20.50;82.00;;;;;;4250100;27;20395;-82
2022/05/26 09:56:48;;;;;;;2.90;0.43;;;20.40;82.10;;;;;;4249492;27;20122;-82
2022/05/26 09:58:48;;;;;;;1.92;0.50;;;20.60;81.40;;;;;;4250050;27;20047;-82
2022/05/26 10:00:49;;;;;;;4.03;0.50;;;20.10;80.00;;;;;;4250163;27;20062;-82
2022/05/26 10:02:52;;;;;;;2.90;0.50;;;20.00;80.60;;;;;;4249659;27;20051;-82
2022/05/26 10:05:13;;;;;;;4.18;0.57;;;19.80;79.50;;;;;;4249646;27;20043;-82
2022/05/26 10:07:33;;;;;;;3.63;0.50;;;19.60;78.70;;;;;;4249782;27;20092;-82
2022/05/26 10:10:01;;;;;;;5.20;0.47;;;19.70;76.70;;;;;;4250369;27;20107;-82
2022/05/26 10:12:03;;;;;;;3.53;1.02;;;19.60;77.60;;;;;;4249761;27;20050;-82
2022/05/26 10:14:33;;;;;;;4.72;0.40;;;19.60;79.40;;;;;;4249812;27;20047;-82
2022/05/26 10:16:44;;;;;;;4.10;0.63;;;19.50;78.30;;;;;;4250132;27;20069;-82
2022/05/26 10:19:06;;;;;;;5.35;0.57;;;19.50;77.90;;;;;;4250110;27;20039;-82
2022/05/26 10:21:27;;;;;;;3.75;0.60;;;19.80;76.90;;;;;;4249666;27;20055;-82
2022/05/26 10:24:06;;;;;;;2.13;0.35;;;20.00;77.60;;;;;;4249788;27;20130;-82
2022/05/26 10:26:18;;;;;;;3.22;0.40;;;20.10;74.30;;;;;;4249766;27;20046;-82
2022/05/26 10:28:37;;;;;;;4.70;0.80;;;20.20;76.70;;;;;;4248312;27;20039;-82
2022/05/26 10:31:12;;;;;;;5.43;0.40;;;20.20;76.00;;;;;;4249559;27;20385;-83
2022/05/26 10:33:51;;;;;;;4.25;0.45;;;20.30;74.60;;;;;;4207100;27;20127;-82
2022/05/26 10:36:03;;;;;;;4.57;0.45;;;20.30;73.50;;;;;;4250296;27;20047;-83
2022/05/26 10:38:51;;;;;;;4.28;0.70;;;20.00;75.00;;;;;;4231595;28;20126;-82
2022/05/26 10:41:15;;;;;;;2.92;0.60;;;19.80;72.50;;;;;;4241526;27;20057;-81
2022/05/26 10:43:34;;;;;;;6.82;0.50;;;19.60;75.40;;;;;;4249675;27;20047;-81
2022/05/26 10:45:40;;;;;;;1.88;0.50;;;19.40;74.70;;;;;;4230900;28;20130;-81
2022/05/26 10:47:56;;;;;;;7.53;0.70;;;19.30;75.50;;;;;;4249154;27;20039;-82
2022/05/26 10:50:11;;;;;;;2.70;0.70;;;19.30;75.80;;;;;;4230952;28;20047;-82
2022/05/26 10:52:14;;;;;;;1.08;0.65;;;19.30;77.30;;;;;;4249034;27;20042;-81
2022/05/26 10:54:45;;;;;;;3.60;0.45;;;19.30;77.80;;;;;;4249793;27;20050;-82
2022/05/26 10:56:52;;;;;;;2.45;0.80;;;19.40;75.90;;;;;;4249078;27;20065;-82
2022/05/26 10:59:07;;;;;;;6.88;1.75;;;19.60;77.50;;;;;;4248719;27;20052;-81
2022/05/26 11:01:19;;;;;;;2.00;0.75;;;19.80;76.90;;;;;;4231686;28;21003;-82
2022/05/26 11:03:30;;;;;;;2.00;0.95;;;19.90;75.00;;;;;;4249439;27;20550;-83
2022/05/26 11:05:31;;;;;;;3.97;0.68;;;20.10;73.90;;;;;;4248876;27;20069;-82
2022/05/26 11:07:43;;;;;;;4.38;0.70;;;20.20;73.60;;;;;;4249394;27;20047;-83
2022/05/26 11:10:02;;;;;;;4.00;0.88;;;20.00;72.90;;;;;;4248485;27;20035;-83
2022/05/26 11:12:08;;;;;;;;;;;19.80;73.30;;;;;;4249489;27;20040;-83
2022/05/26 11:17:21;;;;;;;4.88;0.60;;;20.00;72.90;;;;;;4250852;27;20010;-82
2022/05/26 11:19:28;;;;;;;5.57;0.60;;;20.20;72.40;;;;;;4248857;27;20061;-83
2022/05/26 11:21:31;;;;;;;4.18;0.47;;;20.40;73.80;;;;;;4248258;27;20054;-83
2022/05/26 11:23:37;;;;;;;2.50;0.60;;;20.60;73.80;;;;;;4248955;27;20455;-83
2022/05/26 11:26:04;;;;;;;3.28;0.50;;;20.70;72.80;;;;;;4249037;27;20428;-83
2022/05/26 11:28:15;;;;;;;3.63;0.50;;;20.80;71.80;;;;;;4235774;27;20415;-83
2022/05/26 11:37:52;;;;;;;4.32;0.60;;;20.80;72.10;;;;;;4231650;28;20047;-83
2022/05/26 11:39:56;;;;;;;3.22;0.85;;;20.90;71.50;;;;;;4231907;28;20062;-83
2022/05/26 11:42:11;;;;;;;3.42;0.63;;;20.80;69.60;;;;;;4232411;28;20389;-83
2022/05/26 11:44:11;;;;;;;3.97;0.60;;;20.70;69.70;;;;;;4233482;27;20475;-83